Thursday, October 30, 2014
22:58 UTC
  |  Log In   |  Register Free
Airport Search:

Coleman Municipal Airport
(KCOM)

Coleman Municipal Airport Diagram
No Airport Diagram Available

FAA data valid effective September 18, 2014 - November 13, 2014 (unless otherwise noted).

 
 
 
 
 
 
 
 
 
 
 
 
 
 

Current Aviation Weather for Coleman Municipal Airport (KCOM)

The most recent METAR observation for KCOM was updated at: 2211
METAR Summary (Translated METAR)
KCOM
302155Z AUTO 07003KT 10SM CLR 28/15 A3006 RMK AO2 T02800151
KBWD
302155Z AUTO 00000KT 10SM -RA CLR 27/14 A3006 RMK AO2
(23 nm SE from KCOM)
KABI
302152Z 00000KT 10SM SCT055 28/13 A3007 RMK AO2 SLP161 T02830133
(37 nm NW from KCOM)
TAF Summary (Translated TAF)
KABI
(37 nm NW from KCOM)
301730Z 3018/3118 22010KT P6SM SCT040 FM302100 36010KT P6SM SCT040 FM310300 03008KT P6SM SKC
  Airport Weather Conditions for KCOM

 Current Weather at COM
82° F
Partly Cloudy
Northeast winds at 3.5 mph
COM NOAA Radar

Pressure: 30.06 in
Humidity: 45%
Wind: Northeast at 3.5 MPH (3 KT)
Dew Point: 58.8°F
Visibility: 10.00 mi


Airport Weather Forecast for KCOM

Translated METAR and TAF for KCOM
Translated METAR for KCOM (2253 UTC 30 October 2014)
found at http://aviationweather.gov/adds/metars/
 
METAR text: KCOM 302235Z AUTO 09005KT 10SM CLR 28/15 A3007 RMK AO2 T02750148
Conditions at: KCOM (COLEMAN MUNI , TX, US) observed 2235 UTC 30 October 2014
Temperature: 27.5°C (82°F)
Dewpoint: 14.8°C (59°F) [RH = 46%]
Pressure (altimeter): 30.07 inches Hg (1018.4 mb)
Winds: from the E (90 degrees) at 6 MPH (5 knots; 2.6 m/s)
Visibility: 10 or more miles (16+ km)
Ceiling: at least 12,000 feet AGL
Clouds: sky clear below 12,000 feet AGL
Weather: automated observation with no human augmentation;
there may or may not be significant weather present at this time
Translated TAF for KCOM

There is no translated TAF available for this airport

Find All Airport Services Find A Hotel Find A Rental Car Find A Golf Course Find A Restaurant $100 Hamburger



FBO's on the Field
FBO Company Facility Photos Services Transportation Aviation Fuel Prices: Prices include tax
Catering Weather Repair Courtesy Rental Type 100LL JetA JetA+ MOGAS 8087
 
Add another FBO Facility Photos Catering Weather Repair Courtesy Rental Type 100LL JetA JetA+ MOGAS 8087
Services Transportation Aviation Fuel Prices: Prices include tax
There are no FBO's currently reporting fuel at COM. List your FBO now


model-print
model-print
model-print
model-print